Dal Kalahari — A8FQ8 — position and weather

sailwx.info

Track history (hours):
 
Tides and Currents Weather Stations Pressure Air Temp Water Temp Dewpoint Dewpoint Depression Visibility Wind Speed Wind Dir Waves Ship Positions

Dal Kalahari

Last reported at 2014-Oct-31 10:05 UTC. Time now 2014-Nov-01 03:23 UTC.
Position S 33°58' E 151°13'.

Length 266 m; beam 37 m; draft 12.5 m.

Type: Ship (hazmat cat C). MMSI: 636090797.

Date/timePositionNaut miles runAvg speedWind from/ knotsBaromVisibWave heightAir tempDewpointWater temp
2014-Oct-31 10:05S 33°58' E 151°13'0 0.0
2014-Oct-31 09:29S 33°58' E 151°13'0 0.0
2014-Oct-31 08:29S 33°58' E 151°13'1 0.1
2014-Oct-30 17:25S 33°59' E 151°13'8 8.4
2014-Oct-30 16:31S 33°60' E 151°22'1010.9
2014-Oct-30 15:33S 33°52' E 151°30'1211.8
2014-Oct-30 14:33S 33°42' E 151°38'1211.9
2014-Oct-30 13:33S 33°33' E 151°47'1211.9
2014-Oct-30 12:33S 33°23' E 151°55'1211.9
2014-Oct-30 11:33S 33°13' E 152°03'1211.6
2014-Oct-30 10:33S 33°04' E 152°12'1211.6
2014-Oct-30 09:33S 32°55' E 152°20'1211.7
2014-Oct-30 08:33S 32°45' E 152°28'1211.9
2014-Oct-30 07:32S 32°35' E 152°36'1212.2
2014-Oct-30 06:33S 32°24' E 152°41'1311.9
2014-Oct-30 05:30S 32°12' E 152°47'1111.2
2014-Oct-30 04:33S 32°02' E 152°51'1111.0
2014-Oct-30 03:33S 31°52' E 152°56'23011.9
2014-Oct-29 08:10S 28°06' E 153°44'712.1
2014-Oct-29 07:33S 27°58' E 153°43'1212.1
2014-Oct-29 06:33S 27°46' E 153°42'1211.8
2014-Oct-29 05:33S 27°34' E 153°41'1211.5
2014-Oct-29 04:33S 27°23' E 153°40'1211.6
2014-Oct-29 03:34S 27°11' E 153°39'1110.8
2014-Oct-29 02:33S 27°01' E 153°36'1010.3
2014-Oct-29 01:33S 26°52' E 153°30'1313.5
2014-Oct-29 00:33S 26°45' E 153°17'9 9.1
2014-Oct-28 23:34S 26°50' E 153°09'1615.6
2014-Oct-28 22:33S 27°03' E 153°18'1413.6
2014-Oct-28 21:33S 27°17' E 153°15'7 6.4
2014-Oct-28 20:31S 27°22' E 153°11'0 0.0
2014-Oct-28 19:31S 27°22' E 153°11'0 0.0
2014-Oct-28 18:28S 27°22' E 153°11'0 0.0
2014-Oct-28 17:31S 27°22' E 153°11'0 0.0
2014-Oct-28 16:31S 27°22' E 153°11'0 0.0
2014-Oct-28 15:31S 27°22' E 153°11'0 0.0
2014-Oct-28 14:31S 27°22' E 153°11'0 0.0
2014-Oct-28 13:31S 27°22' E 153°11'0 0.0
2014-Oct-28 12:31S 27°22' E 153°11'0 0.0
2014-Oct-28 11:31S 27°22' E 153°11'0 0.0
2014-Oct-28 10:31S 27°22' E 153°11'0 0.0
2014-Oct-28 09:31S 27°22' E 153°11'0 0.0
2014-Oct-28 08:31S 27°22' E 153°11'0 0.0
2014-Oct-28 07:31S 27°22' E 153°11'0 0.0
2014-Oct-28 06:31S 27°22' E 153°11'0 0.0
2014-Oct-28 05:31S 27°22' E 153°11'0 0.0
2014-Oct-28 04:31S 27°22' E 153°11'2 2.6
2014-Oct-28 03:34S 27°20' E 153°12'1212.1
2014-Oct-28 02:34S 27°11' E 153°21'1313.1
2014-Oct-28 01:33S 26°59' E 153°14'1212.1
2014-Oct-28 00:33S 26°47' E 153°12'9 8.7
2014-Oct-27 23:33S 26°39' E 153°16'1313.3
2014-Oct-27 22:33S 26°27' E 153°21'1413.3
2014-Oct-27 21:33S 26°14' E 153°25'1313.5
2014-Oct-27 20:33S 26°01' E 153°30'1413.6
2014-Oct-27 19:33S 25°48' E 153°35'2913.4
2014-Oct-27 17:21S 25°21' E 153°47'1114.3
2014-Oct-27 16:33S 25°10' E 153°51'  
2014-Oct-23 00:00S 01°18' E 145°18'35614.9 150 / 101010.410.8 0.530.923.529.1
2014-Oct-22 00:00N 03°30' E 141°48'   290 / 51010.910.8 0.534.024.629.3
Track history (hours):
 
Tides and Currents Weather Stations Pressure Air Temp Water Temp Dewpoint Dewpoint Depression Visibility Wind Speed Wind Dir Waves Ship Positions

Dal Kalahari

Last reported at 2014-Oct-31 10:05 UTC. Time now 2014-Nov-01 03:23 UTC.
Position S 33°58' E 151°13'.

Length 266 m; beam 37 m; draft 12.5 m.

Type: Ship (hazmat cat C). MMSI: 636090797.

Date/timePositionNaut miles runAvg speedWind from/ knotsBaromVisibWave heightAir tempDewpointWater temp
2014-Oct-31 10:05S 33°58' E 151°13'0 0.0
2014-Oct-31 09:29S 33°58' E 151°13'0 0.0
2014-Oct-31 08:29S 33°58' E 151°13'1 0.1
2014-Oct-30 17:25S 33°59' E 151°13'8 8.4
2014-Oct-30 16:31S 33°60' E 151°22'1010.9
2014-Oct-30 15:33S 33°52' E 151°30'1211.8
2014-Oct-30 14:33S 33°42' E 151°38'1211.9
2014-Oct-30 13:33S 33°33' E 151°47'1211.9
2014-Oct-30 12:33S 33°23' E 151°55'1211.9
2014-Oct-30 11:33S 33°13' E 152°03'1211.6
2014-Oct-30 10:33S 33°04' E 152°12'1211.6
2014-Oct-30 09:33S 32°55' E 152°20'1211.7
2014-Oct-30 08:33S 32°45' E 152°28'1211.9
2014-Oct-30 07:32S 32°35' E 152°36'1212.2
2014-Oct-30 06:33S 32°24' E 152°41'1311.9
2014-Oct-30 05:30S 32°12' E 152°47'1111.2
2014-Oct-30 04:33S 32°02' E 152°51'1111.0
2014-Oct-30 03:33S 31°52' E 152°56'23011.9
2014-Oct-29 08:10S 28°06' E 153°44'712.1
2014-Oct-29 07:33S 27°58' E 153°43'1212.1
2014-Oct-29 06:33S 27°46' E 153°42'1211.8
2014-Oct-29 05:33S 27°34' E 153°41'1211.5
2014-Oct-29 04:33S 27°23' E 153°40'1211.6
2014-Oct-29 03:34S 27°11' E 153°39'1110.8
2014-Oct-29 02:33S 27°01' E 153°36'1010.3
2014-Oct-29 01:33S 26°52' E 153°30'1313.5
2014-Oct-29 00:33S 26°45' E 153°17'9 9.1
2014-Oct-28 23:34S 26°50' E 153°09'1615.6
2014-Oct-28 22:33S 27°03' E 153°18'1413.6
2014-Oct-28 21:33S 27°17' E 153°15'7 6.4
2014-Oct-28 20:31S 27°22' E 153°11'0 0.0
2014-Oct-28 19:31S 27°22' E 153°11'0 0.0
2014-Oct-28 18:28S 27°22' E 153°11'0 0.0
2014-Oct-28 17:31S 27°22' E 153°11'0 0.0
2014-Oct-28 16:31S 27°22' E 153°11'0 0.0
2014-Oct-28 15:31S 27°22' E 153°11'0 0.0
2014-Oct-28 14:31S 27°22' E 153°11'0 0.0
2014-Oct-28 13:31S 27°22' E 153°11'0 0.0
2014-Oct-28 12:31S 27°22' E 153°11'0 0.0
2014-Oct-28 11:31S 27°22' E 153°11'0 0.0
2014-Oct-28 10:31S 27°22' E 153°11'0 0.0
2014-Oct-28 09:31S 27°22' E 153°11'0 0.0
2014-Oct-28 08:31S 27°22' E 153°11'0 0.0
2014-Oct-28 07:31S 27°22' E 153°11'0 0.0
2014-Oct-28 06:31S 27°22' E 153°11'0 0.0
2014-Oct-28 05:31S 27°22' E 153°11'0 0.0
2014-Oct-28 04:31S 27°22' E 153°11'2 2.6
2014-Oct-28 03:34S 27°20' E 153°12'1212.1
2014-Oct-28 02:34S 27°11' E 153°21'1313.1
2014-Oct-28 01:33S 26°59' E 153°14'1212.1
2014-Oct-28 00:33S 26°47' E 153°12'9 8.7
2014-Oct-27 23:33S 26°39' E 153°16'1313.3
2014-Oct-27 22:33S 26°27' E 153°21'1413.3
2014-Oct-27 21:33S 26°14' E 153°25'1313.5
2014-Oct-27 20:33S 26°01' E 153°30'1413.6
2014-Oct-27 19:33S 25°48' E 153°35'2913.4
2014-Oct-27 17:21S 25°21' E 153°47'1114.3
2014-Oct-27 16:33S 25°10' E 153°51'  
2014-Oct-23 00:00S 01°18' E 145°18'35614.9 150 / 101010.410.8 0.530.923.529.1
2014-Oct-22 00:00N 03°30' E 141°48'   290 / 51010.910.8 0.534.024.629.3

Dump ship's entire track history